sensor_id;sensor_type;location;lat;lon;timestamp;temperature;humidity
3778;DHT22;1904;50.076;8.660;2023-06-22T00:01:09;22.00;1.00
3778;DHT22;1904;50.076;8.660;2023-06-22T00:03:35;22.00;1.00
3778;DHT22;1904;50.076;8.660;2023-06-22T00:06:01;22.00;1.00
3778;DHT22;1904;50.076;8.660;2023-06-22T00:08:26;22.10;1.00
3778;DHT22;1904;50.076;8.660;2023-06-22T00:10:54;22.10;1.00
3778;DHT22;1904;50.076;8.660;2023-06-22T00:13:20;22.10;1.00
3778;DHT22;1904;50.076;8.660;2023-06-22T00:15:54;22.00;1.00
3778;DHT22;1904;50.076;8.660;2023-06-22T00:18:41;22.00;1.00
3778;DHT22;1904;50.076;8.660;2023-06-22T00:21:41;22.10;1.00
3778;DHT22;1904;50.076;8.660;2023-06-22T00:24:29;22.10;1.00
3778;DHT22;1904;50.076;8.660;2023-06-22T00:26:55;22.10;1.00
3778;DHT22;1904;50.076;8.660;2023-06-22T00:29:21;22.20;1.00
3778;DHT22;1904;50.076;8.660;2023-06-22T00:31:46;22.10;1.00
3778;DHT22;1904;50.076;8.660;2023-06-22T00:34:12;22.10;1.00
3778;DHT22;1904;50.076;8.660;2023-06-22T00:36:38;22.10;1.00
3778;DHT22;1904;50.076;8.660;2023-06-22T00:39:06;22.20;1.00
3778;DHT22;1904;50.076;8.660;2023-06-22T00:41:33;22.10;1.00
3778;DHT22;1904;50.076;8.660;2023-06-22T00:43:59;22.10;1.00
3778;DHT22;1904;50.076;8.660;2023-06-22T00:46:25;22.20;1.00
3778;DHT22;1904;50.076;8.660;2023-06-22T00:48:54;22.20;1.00
3778;DHT22;1904;50.076;8.660;2023-06-22T00:51:22;22.20;1.00
3778;DHT22;1904;50.076;8.660;2023-06-22T00:53:54;22.20;1.00
3778;DHT22;1904;50.076;8.660;2023-06-22T00:56:20;22.30;1.00
3778;DHT22;1904;50.076;8.660;2023-06-22T00:58:50;22.40;1.00
3778;DHT22;1904;50.076;8.660;2023-06-22T01:01:18;22.40;1.00
3778;DHT22;1904;50.076;8.660;2023-06-22T01:03:48;22.40;1.00
3778;DHT22;1904;50.076;8.660;2023-06-22T01:06:21;22.40;1.00
3778;DHT22;1904;50.076;8.660;2023-06-22T01:09:00;22.40;1.00
3778;DHT22;1904;50.076;8.660;2023-06-22T01:11:46;22.50;1.00
3778;DHT22;1904;50.076;8.660;2023-06-22T01:14:53;22.40;1.00
3778;DHT22;1904;50.076;8.660;2023-06-22T01:17:24;22.10;1.00
3778;DHT22;1904;50.076;8.660;2023-06-22T01:20:11;22.10;1.00
3778;DHT22;1904;50.076;8.660;2023-06-22T01:23:15;22.20;1.00
3778;DHT22;1904;50.076;8.660;2023-06-22T01:28:50;22.10;1.00
3778;DHT22;1904;50.076;8.660;2023-06-22T01:31:20;22.00;1.00
3778;DHT22;1904;50.076;8.660;2023-06-22T01:34:00;22.00;1.00
3778;DHT22;1904;50.076;8.660;2023-06-22T01:36:27;21.80;1.00
3778;DHT22;1904;50.076;8.660;2023-06-22T01:38:53;21.70;1.00
3778;DHT22;1904;50.076;8.660;2023-06-22T01:41:20;21.60;1.00
3778;DHT22;1904;50.076;8.660;2023-06-22T01:43:47;21.50;1.00
3778;DHT22;1904;50.076;8.660;2023-06-22T01:46:14;21.50;1.00
3778;DHT22;1904;50.076;8.660;2023-06-22T01:48:40;21.40;1.00
3778;DHT22;1904;50.076;8.660;2023-06-22T01:51:06;21.30;1.00
3778;DHT22;1904;50.076;8.660;2023-06-22T01:53:32;21.30;1.00
3778;DHT22;1904;50.076;8.660;2023-06-22T01:56:06;21.20;1.00
3778;DHT22;1904;50.076;8.660;2023-06-22T02:01:54;21.10;1.00
3778;DHT22;1904;50.076;8.660;2023-06-22T02:04:44;21.20;1.00
3778;DHT22;1904;50.076;8.660;2023-06-22T02:07:45;21.10;1.00
3778;DHT22;1904;50.076;8.660;2023-06-22T02:10:24;21.20;1.00
3778;DHT22;1904;50.076;8.660;2023-06-22T02:12:53;21.20;1.00
3778;DHT22;1904;50.076;8.660;2023-06-22T02:15:20;21.20;1.00
3778;DHT22;1904;50.076;8.660;2023-06-22T02:17:48;21.20;1.00
3778;DHT22;1904;50.076;8.660;2023-06-22T02:20:15;21.20;1.00
3778;DHT22;1904;50.076;8.660;2023-06-22T02:22:42;21.20;1.00
3778;DHT22;1904;50.076;8.660;2023-06-22T02:25:08;21.20;1.00
3778;DHT22;1904;50.076;8.660;2023-06-22T02:27:36;21.20;1.00
3778;DHT22;1904;50.076;8.660;2023-06-22T02:30:07;21.20;1.00
3778;DHT22;1904;50.076;8.660;2023-06-22T02:32:33;21.20;1.00
3778;DHT22;1904;50.076;8.660;2023-06-22T02:34:59;21.20;1.00
3778;DHT22;1904;50.076;8.660;2023-06-22T02:37:25;21.20;1.00
3778;DHT22;1904;50.076;8.660;2023-06-22T02:39:54;21.20;1.00
3778;DHT22;1904;50.076;8.660;2023-06-22T02:42:20;21.20;1.00
3778;DHT22;1904;50.076;8.660;2023-06-22T02:44:47;21.20;1.00
3778;DHT22;1904;50.076;8.660;2023-06-22T02:47:18;21.20;1.00
3778;DHT22;1904;50.076;8.660;2023-06-22T02:49:43;21.20;1.00
3778;DHT22;1904;50.076;8.660;2023-06-22T02:52:11;21.20;1.00
3778;DHT22;1904;50.076;8.660;2023-06-22T02:54:48;21.20;1.00
3778;DHT22;1904;50.076;8.660;2023-06-22T03:00:24;21.10;1.00
3778;DHT22;1904;50.076;8.660;2023-06-22T03:02:56;21.10;1.00
3778;DHT22;1904;50.076;8.660;2023-06-22T03:05:24;21.00;1.00
3778;DHT22;1904;50.076;8.660;2023-06-22T03:08:00;21.00;1.00
3778;DHT22;1904;50.076;8.660;2023-06-22T03:10:26;21.00;1.00
3778;DHT22;1904;50.076;8.660;2023-06-22T03:13:06;20.90;1.00
3778;DHT22;1904;50.076;8.660;2023-06-22T03:19:00;20.90;1.00
3778;DHT22;1904;50.076;8.660;2023-06-22T03:21:37;20.90;1.00
3778;DHT22;1904;50.076;8.660;2023-06-22T03:24:04;20.90;1.00
3778;DHT22;1904;50.076;8.660;2023-06-22T03:26:42;20.80;1.00
3778;DHT22;1904;50.076;8.660;2023-06-22T03:29:24;20.80;1.00
3778;DHT22;1904;50.076;8.660;2023-06-22T03:32:12;20.80;1.00
3778;DHT22;1904;50.076;8.660;2023-06-22T03:35:11;20.80;1.00
3778;DHT22;1904;50.076;8.660;2023-06-22T03:38:00;20.80;1.00
3778;DHT22;1904;50.076;8.660;2023-06-22T03:40:25;20.80;1.00
3778;DHT22;1904;50.076;8.660;2023-06-22T03:43:06;20.80;1.00
3778;DHT22;1904;50.076;8.660;2023-06-22T03:45:36;20.80;1.00
3778;DHT22;1904;50.076;8.660;2023-06-22T03:48:06;20.80;1.00
3778;DHT22;1904;50.076;8.660;2023-06-22T03:50:36;20.80;1.00
3778;DHT22;1904;50.076;8.660;2023-06-22T03:56:19;20.90;1.00
3778;DHT22;1904;50.076;8.660;2023-06-22T03:59:06;20.90;1.00
3778;DHT22;1904;50.076;8.660;2023-06-22T04:01:31;20.90;1.00
3778;DHT22;1904;50.076;8.660;2023-06-22T04:04:06;21.00;1.00
3778;DHT22;1904;50.076;8.660;2023-06-22T04:06:36;21.00;1.00
3778;DHT22;1904;50.076;8.660;2023-06-22T04:09:12;21.10;1.00
3778;DHT22;1904;50.076;8.660;2023-06-22T04:14:55;21.20;1.00
3778;DHT22;1904;50.076;8.660;2023-06-22T04:20:54;21.20;1.00
3778;DHT22;1904;50.076;8.660;2023-06-22T04:23:42;21.30;1.00
3778;DHT22;1904;50.076;8.660;2023-06-22T04:26:18;21.40;1.00
3778;DHT22;1904;50.076;8.660;2023-06-22T04:28:47;21.40;1.00
3778;DHT22;1904;50.076;8.660;2023-06-22T04:31:47;21.40;1.00
3778;DHT22;1904;50.076;8.660;2023-06-22T04:40:59;21.50;1.00
3778;DHT22;1904;50.076;8.660;2023-06-22T04:43:54;21.50;1.00
3778;DHT22;1904;50.076;8.660;2023-06-22T04:46:19;21.50;1.00
3778;DHT22;1904;50.076;8.660;2023-06-22T04:52:41;21.60;1.00
3778;DHT22;1904;50.076;8.660;2023-06-22T04:55:19;21.70;1.00
3778;DHT22;1904;50.076;8.660;2023-06-22T04:58:17;21.80;1.00
3778;DHT22;1904;50.076;8.660;2023-06-22T05:04:07;21.90;1.00
3778;DHT22;1904;50.076;8.660;2023-06-22T05:06:36;22.00;1.00
3778;DHT22;1904;50.076;8.660;2023-06-22T05:12:18;22.20;1.00
3778;DHT22;1904;50.076;8.660;2023-06-22T05:18:06;22.40;1.00
3778;DHT22;1904;50.076;8.660;2023-06-22T05:20:42;22.50;1.00
3778;DHT22;1904;50.076;8.660;2023-06-22T05:23:12;22.60;1.00
3778;DHT22;1904;50.076;8.660;2023-06-22T05:26:05;22.80;1.00
3778;DHT22;1904;50.076;8.660;2023-06-22T05:28:54;22.90;1.00
3778;DHT22;1904;50.076;8.660;2023-06-22T05:31:36;22.90;1.00
3778;DHT22;1904;50.076;8.660;2023-06-22T05:41:12;23.00;1.00
3778;DHT22;1904;50.076;8.660;2023-06-22T05:44:00;23.00;1.00
3778;DHT22;1904;50.076;8.660;2023-06-22T05:46:36;23.10;1.00
3778;DHT22;1904;50.076;8.660;2023-06-22T05:52:24;23.00;1.00
3778;DHT22;1904;50.076;8.660;2023-06-22T05:55:06;23.10;1.00
3778;DHT22;1904;50.076;8.660;2023-06-22T05:57:42;23.10;1.00
3778;DHT22;1904;50.076;8.660;2023-06-22T06:00:18;23.20;1.00
3778;DHT22;1904;50.076;8.660;2023-06-22T06:02:48;23.20;1.00
3778;DHT22;1904;50.076;8.660;2023-06-22T06:05:14;23.40;1.00
3778;DHT22;1904;50.076;8.660;2023-06-22T06:08:06;23.40;1.00
3778;DHT22;1904;50.076;8.660;2023-06-22T06:10:48;23.40;1.00
3778;DHT22;1904;50.076;8.660;2023-06-22T06:13:18;23.50;1.00
3778;DHT22;1904;50.076;8.660;2023-06-22T06:15:48;23.70;1.00
3778;DHT22;1904;50.076;8.660;2023-06-22T06:18:24;23.70;1.00
3778;DHT22;1904;50.076;8.660;2023-06-22T06:21:00;23.80;1.00
3778;DHT22;1904;50.076;8.660;2023-06-22T06:23:54;24.00;1.00
3778;DHT22;1904;50.076;8.660;2023-06-22T06:26:36;24.00;1.00
3778;DHT22;1904;50.076;8.660;2023-06-22T06:29:06;24.10;1.00
3778;DHT22;1904;50.076;8.660;2023-06-22T06:31:32;24.20;1.00
3778;DHT22;1904;50.076;8.660;2023-06-22T06:34:30;24.30;1.00
3778;DHT22;1904;50.076;8.660;2023-06-22T06:36:55;24.40;1.00
3778;DHT22;1904;50.076;8.660;2023-06-22T06:39:42;24.40;1.00
3778;DHT22;1904;50.076;8.660;2023-06-22T06:42:30;24.50;1.00
3778;DHT22;1904;50.076;8.660;2023-06-22T06:45:00;24.70;1.00
3778;DHT22;1904;50.076;8.660;2023-06-22T06:47:30;24.80;1.00
3778;DHT22;1904;50.076;8.660;2023-06-22T06:50:12;24.90;1.00
3778;DHT22;1904;50.076;8.660;2023-06-22T06:53:00;25.20;1.00
3778;DHT22;1904;50.076;8.660;2023-06-22T06:55:25;25.30;1.00
3778;DHT22;1904;50.076;8.660;2023-06-22T06:58:12;25.40;1.00
3778;DHT22;1904;50.076;8.660;2023-06-22T07:00:39;25.60;1.00
3778;DHT22;1904;50.076;8.660;2023-06-22T07:03:24;25.80;1.00
3778;DHT22;1904;50.076;8.660;2023-06-22T07:06:13;25.90;1.00
3778;DHT22;1904;50.076;8.660;2023-06-22T07:09:12;26.00;1.00
3778;DHT22;1904;50.076;8.660;2023-06-22T07:11:37;26.10;1.00
3778;DHT22;1904;50.076;8.660;2023-06-22T07:17:12;26.10;1.00
3778;DHT22;1904;50.076;8.660;2023-06-22T07:19:38;26.20;1.00
3778;DHT22;1904;50.076;8.660;2023-06-22T07:22:12;26.20;1.00
3778;DHT22;1904;50.076;8.660;2023-06-22T07:24:42;26.20;1.00
3778;DHT22;1904;50.076;8.660;2023-06-22T07:27:12;26.20;1.00
3778;DHT22;1904;50.076;8.660;2023-06-22T07:29:48;26.30;1.00
3778;DHT22;1904;50.076;8.660;2023-06-22T07:32:30;26.20;1.00
3778;DHT22;1904;50.076;8.660;2023-06-22T07:35:06;26.30;1.00
3778;DHT22;1904;50.076;8.660;2023-06-22T07:37:42;26.40;1.00
3778;DHT22;1904;50.076;8.660;2023-06-22T07:40:12;26.50;1.00
3778;DHT22;1904;50.076;8.660;2023-06-22T07:42:42;26.60;1.00
3778;DHT22;1904;50.076;8.660;2023-06-22T07:48:37;26.90;1.00
3778;DHT22;1904;50.076;8.660;2023-06-22T07:51:12;26.90;1.00
3778;DHT22;1904;50.076;8.660;2023-06-22T07:54:12;26.90;1.00
3778;DHT22;1904;50.076;8.660;2023-06-22T07:57:12;27.00;1.00
3778;DHT22;1904;50.076;8.660;2023-06-22T07:59:54;27.20;1.00
3778;DHT22;1904;50.076;8.660;2023-06-22T08:05:42;27.30;1.00
3778;DHT22;1904;50.076;8.660;2023-06-22T08:08:24;27.50;1.00
3778;DHT22;1904;50.076;8.660;2023-06-22T08:10:54;27.60;1.00
3778;DHT22;1904;50.076;8.660;2023-06-22T08:13:42;27.70;1.00
3778;DHT22;1904;50.076;8.660;2023-06-22T08:16:12;27.70;1.00
3778;DHT22;1904;50.076;8.660;2023-06-22T08:19:12;27.90;1.00
3778;DHT22;1904;50.076;8.660;2023-06-22T08:21:38;28.00;1.00
3778;DHT22;1904;50.076;8.660;2023-06-22T08:24:36;28.10;1.00
3778;DHT22;1904;50.076;8.660;2023-06-22T08:27:01;28.20;1.00
3778;DHT22;1904;50.076;8.660;2023-06-22T08:29:36;28.30;1.00
3778;DHT22;1904;50.076;8.660;2023-06-22T08:32:03;28.50;1.00
3778;DHT22;1904;50.076;8.660;2023-06-22T08:34:54;28.50;1.00
3778;DHT22;1904;50.076;8.660;2023-06-22T08:37:24;28.60;1.00
3778;DHT22;1904;50.076;8.660;2023-06-22T08:40:33;28.70;1.00
3778;DHT22;1904;50.076;8.660;2023-06-22T08:43:00;28.90;1.00
3778;DHT22;1904;50.076;8.660;2023-06-22T08:48:54;29.10;1.00
3778;DHT22;1904;50.076;8.660;2023-06-22T08:51:42;29.30;1.00
3778;DHT22;1904;50.076;8.660;2023-06-22T08:54:12;29.50;1.00
3778;DHT22;1904;50.076;8.660;2023-06-22T08:56:44;29.60;1.00
3778;DHT22;1904;50.076;8.660;2023-06-22T08:59:30;29.70;1.00
3778;DHT22;1904;50.076;8.660;2023-06-22T09:04:49;30.00;1.00
3778;DHT22;1904;50.076;8.660;2023-06-22T09:07:24;30.10;1.00
3778;DHT22;1904;50.076;8.660;2023-06-22T09:09:55;30.20;1.00
3778;DHT22;1904;50.076;8.660;2023-06-22T09:12:20;30.20;1.00
3778;DHT22;1904;50.076;8.660;2023-06-22T09:14:51;30.40;1.00
3778;DHT22;1904;50.076;8.660;2023-06-22T09:17:48;30.40;1.00
3778;DHT22;1904;50.076;8.660;2023-06-22T09:23:42;31.30;1.00
3778;DHT22;1904;50.076;8.660;2023-06-22T09:26:24;31.30;1.00
3778;DHT22;1904;50.076;8.660;2023-06-22T09:32:12;31.60;1.00
3778;DHT22;1904;50.076;8.660;2023-06-22T09:34:42;31.50;1.00
3778;DHT22;1904;50.076;8.660;2023-06-22T09:37:12;31.40;1.00
3778;DHT22;1904;50.076;8.660;2023-06-22T09:39:42;31.40;1.00
3778;DHT22;1904;50.076;8.660;2023-06-22T09:42:42;31.50;1.00
3778;DHT22;1904;50.076;8.660;2023-06-22T09:51:42;32.10;1.00
3778;DHT22;1904;50.076;8.660;2023-06-22T09:54:08;32.10;1.00
3778;DHT22;1904;50.076;8.660;2023-06-22T09:56:33;32.60;1.00
3778;DHT22;1904;50.076;8.660;2023-06-22T09:59:06;32.80;1.00
3778;DHT22;1904;50.076;8.660;2023-06-22T10:01:32;32.80;1.00
3778;DHT22;1904;50.076;8.660;2023-06-22T10:04:01;33.10;1.00
3778;DHT22;1904;50.076;8.660;2023-06-22T10:06:30;33.30;1.00
3778;DHT22;1904;50.076;8.660;2023-06-22T10:09:07;33.60;1.00
3778;DHT22;1904;50.076;8.660;2023-06-22T10:11:42;33.70;1.00
3778;DHT22;1904;50.076;8.660;2023-06-22T10:14:12;33.60;1.00
3778;DHT22;1904;50.076;8.660;2023-06-22T10:17:06;33.70;1.00
3778;DHT22;1904;50.076;8.660;2023-06-22T10:19:42;33.70;1.00
3778;DHT22;1904;50.076;8.660;2023-06-22T10:22:12;33.90;1.00
3778;DHT22;1904;50.076;8.660;2023-06-22T10:24:42;34.00;1.00
3778;DHT22;1904;50.076;8.660;2023-06-22T10:27:12;33.80;1.00
3778;DHT22;1904;50.076;8.660;2023-06-22T10:29:42;33.80;1.00
3778;DHT22;1904;50.076;8.660;2023-06-22T10:32:12;33.70;1.00
3778;DHT22;1904;50.076;8.660;2023-06-22T10:34:42;33.70;1.00
3778;DHT22;1904;50.076;8.660;2023-06-22T10:37:12;33.80;1.00
3778;DHT22;1904;50.076;8.660;2023-06-22T10:39:48;33.90;1.00
3778;DHT22;1904;50.076;8.660;2023-06-22T10:42:14;34.20;1.00
3778;DHT22;1904;50.076;8.660;2023-06-22T10:44:42;34.50;1.00
3778;DHT22;1904;50.076;8.660;2023-06-22T10:47:10;34.50;1.00
3778;DHT22;1904;50.076;8.660;2023-06-22T10:49:42;34.40;1.00
3778;DHT22;1904;50.076;8.660;2023-06-22T10:52:12;34.50;1.00
3778;DHT22;1904;50.076;8.660;2023-06-22T10:54:42;34.70;1.00
3778;DHT22;1904;50.076;8.660;2023-06-22T10:57:18;34.60;1.00
3778;DHT22;1904;50.076;8.660;2023-06-22T11:00:12;34.50;1.00
3778;DHT22;1904;50.076;8.660;2023-06-22T11:05:05;34.40;1.00
3778;DHT22;1904;50.076;8.660;2023-06-22T11:07:37;34.60;1.00
3778;DHT22;1904;50.076;8.660;2023-06-22T11:10:13;34.60;1.00
3778;DHT22;1904;50.076;8.660;2023-06-22T11:12:42;34.60;1.00
3778;DHT22;1904;50.076;8.660;2023-06-22T11:15:12;34.60;1.00
3778;DHT22;1904;50.076;8.660;2023-06-22T11:20:12;34.50;1.00
3778;DHT22;1904;50.076;8.660;2023-06-22T11:27:42;34.40;1.00
3778;DHT22;1904;50.076;8.660;2023-06-22T11:30:12;34.40;1.00
3778;DHT22;1904;50.076;8.660;2023-06-22T11:32:42;34.60;1.00
3778;DHT22;1904;50.076;8.660;2023-06-22T11:35:12;34.90;1.00
3778;DHT22;1904;50.076;8.660;2023-06-22T11:37:42;34.60;1.00
3778;DHT22;1904;50.076;8.660;2023-06-22T11:40:12;34.60;1.00
3778;DHT22;1904;50.076;8.660;2023-06-22T11:42:38;34.60;1.00
3778;DHT22;1904;50.076;8.660;2023-06-22T11:45:12;34.50;1.00
3778;DHT22;1904;50.076;8.660;2023-06-22T11:47:38;34.60;1.00
3778;DHT22;1904;50.076;8.660;2023-06-22T11:50:06;34.70;1.00
3778;DHT22;1904;50.076;8.660;2023-06-22T11:52:33;34.90;1.00
3778;DHT22;1904;50.076;8.660;2023-06-22T11:55:12;34.80;1.00
3778;DHT22;1904;50.076;8.660;2023-06-22T11:57:56;35.00;1.00
3778;DHT22;1904;50.076;8.660;2023-06-22T12:07:18;35.30;1.00
3778;DHT22;1904;50.076;8.660;2023-06-22T12:09:44;35.40;1.00
3778;DHT22;1904;50.076;8.660;2023-06-22T12:12:18;35.10;1.00
3778;DHT22;1904;50.076;8.660;2023-06-22T12:18:24;35.00;1.00
3778;DHT22;1904;50.076;8.660;2023-06-22T12:24:12;34.90;1.00
3778;DHT22;1904;50.076;8.660;2023-06-22T12:29:59;35.00;1.00
3778;DHT22;1904;50.076;8.660;2023-06-22T12:32:26;35.20;1.00
3778;DHT22;1904;50.076;8.660;2023-06-22T12:38:13;35.40;1.00
3778;DHT22;1904;50.076;8.660;2023-06-22T12:40:42;35.40;1.00
3778;DHT22;1904;50.076;8.660;2023-06-22T12:43:36;35.30;1.00
3778;DHT22;1904;50.076;8.660;2023-06-22T12:49:30;35.00;1.00
3778;DHT22;1904;50.076;8.660;2023-06-22T12:55:24;35.00;1.00
3778;DHT22;1904;50.076;8.660;2023-06-22T12:57:50;35.00;1.00
3778;DHT22;1904;50.076;8.660;2023-06-22T13:03:06;35.10;1.00
3778;DHT22;1904;50.076;8.660;2023-06-22T13:05:42;35.30;1.00
3778;DHT22;1904;50.076;8.660;2023-06-22T13:08:24;35.60;1.00
3778;DHT22;1904;50.076;8.660;2023-06-22T13:11:00;35.70;1.00
3778;DHT22;1904;50.076;8.660;2023-06-22T13:13:26;35.80;1.00
3778;DHT22;1904;50.076;8.660;2023-06-22T13:16:00;35.90;1.00
3778;DHT22;1904;50.076;8.660;2023-06-22T13:18:48;35.80;1.00
3778;DHT22;1904;50.076;8.660;2023-06-22T13:21:24;35.80;1.00
3778;DHT22;1904;50.076;8.660;2023-06-22T13:24:00;35.80;1.00
3778;DHT22;1904;50.076;8.660;2023-06-22T13:32:24;36.40;1.00
3778;DHT22;1904;50.076;8.660;2023-06-22T13:38:11;36.50;1.00
3778;DHT22;1904;50.076;8.660;2023-06-22T13:40:42;36.40;1.00
3778;DHT22;1904;50.076;8.660;2023-06-22T13:43:12;36.40;1.00
3778;DHT22;1904;50.076;8.660;2023-06-22T13:48:54;36.40;1.00
3778;DHT22;1904;50.076;8.660;2023-06-22T13:54:42;36.60;1.00
3778;DHT22;1904;50.076;8.660;2023-06-22T13:57:12;36.70;1.00
3778;DHT22;1904;50.076;8.660;2023-06-22T14:02:49;37.20;1.00
3778;DHT22;1904;50.076;8.660;2023-06-22T14:05:18;37.30;1.00
3778;DHT22;1904;50.076;8.660;2023-06-22T14:07:45;37.30;1.00
3778;DHT22;1904;50.076;8.660;2023-06-22T14:10:11;37.40;1.00
3778;DHT22;1904;50.076;8.660;2023-06-22T14:12:48;37.40;1.00
3778;DHT22;1904;50.076;8.660;2023-06-22T14:15:30;37.60;1.00
3778;DHT22;1904;50.076;8.660;2023-06-22T14:18:18;37.90;1.00
3778;DHT22;1904;50.076;8.660;2023-06-22T14:24:24;37.50;1.00
3778;DHT22;1904;50.076;8.660;2023-06-22T14:26:50;37.30;1.00
3778;DHT22;1904;50.076;8.660;2023-06-22T14:35:54;36.20;1.00
3778;DHT22;1904;50.076;8.660;2023-06-22T14:38:36;35.90;1.00
3778;DHT22;1904;50.076;8.660;2023-06-22T14:41:12;35.70;1.00
3778;DHT22;1904;50.076;8.660;2023-06-22T14:43:54;35.70;1.00
3778;DHT22;1904;50.076;8.660;2023-06-22T14:46:24;35.80;1.00
3778;DHT22;1904;50.076;8.660;2023-06-22T14:48:54;35.40;1.00
3778;DHT22;1904;50.076;8.660;2023-06-22T14:51:42;35.40;1.00
3778;DHT22;1904;50.076;8.660;2023-06-22T14:54:08;35.40;1.00
3778;DHT22;1904;50.076;8.660;2023-06-22T14:56:42;35.40;1.00
3778;DHT22;1904;50.076;8.660;2023-06-22T14:59:30;35.40;1.00
3778;DHT22;1904;50.076;8.660;2023-06-22T15:02:18;35.30;1.00
3778;DHT22;1904;50.076;8.660;2023-06-22T15:04:54;35.10;1.00
3778;DHT22;1904;50.076;8.660;2023-06-22T15:07:20;35.10;1.00
3778;DHT22;1904;50.076;8.660;2023-06-22T15:10:00;35.00;1.00
3778;DHT22;1904;50.076;8.660;2023-06-22T15:12:30;34.40;1.00
3778;DHT22;1904;50.076;8.660;2023-06-22T15:15:18;34.10;1.00
3778;DHT22;1904;50.076;8.660;2023-06-22T15:17:48;33.80;1.00
3778;DHT22;1904;50.076;8.660;2023-06-22T15:20:15;33.60;1.00
3778;DHT22;1904;50.076;8.660;2023-06-22T15:22:42;33.50;1.00
3778;DHT22;1904;50.076;8.660;2023-06-22T15:25:13;33.30;1.00
3778;DHT22;1904;50.076;8.660;2023-06-22T15:27:39;32.90;1.00
3778;DHT22;1904;50.076;8.660;2023-06-22T15:30:12;32.90;1.00
3778;DHT22;1904;50.076;8.660;2023-06-22T15:32:54;32.60;1.00
3778;DHT22;1904;50.076;8.660;2023-06-22T15:35:21;32.30;1.00
3778;DHT22;1904;50.076;8.660;2023-06-22T15:37:49;32.40;1.00
3778;DHT22;1904;50.076;8.660;2023-06-22T15:40:24;32.30;1.00
3778;DHT22;1904;50.076;8.660;2023-06-22T15:42:54;32.30;1.00
3778;DHT22;1904;50.076;8.660;2023-06-22T15:45:20;32.20;1.00
3778;DHT22;1904;50.076;8.660;2023-06-22T15:47:46;32.10;1.00
3778;DHT22;1904;50.076;8.660;2023-06-22T15:50:12;32.10;1.00
3778;DHT22;1904;50.076;8.660;2023-06-22T15:52:48;32.10;1.00
3778;DHT22;1904;50.076;8.660;2023-06-22T15:55:24;32.10;1.00
3778;DHT22;1904;50.076;8.660;2023-06-22T16:01:12;32.20;1.00
3778;DHT22;1904;50.076;8.660;2023-06-22T16:07:13;31.60;1.00
3778;DHT22;1904;50.076;8.660;2023-06-22T16:09:48;31.30;1.00
3778;DHT22;1904;50.076;8.660;2023-06-22T16:12:36;31.30;1.00
3778;DHT22;1904;50.076;8.660;2023-06-22T16:15:12;30.90;1.00
3778;DHT22;1904;50.076;8.660;2023-06-22T16:17:42;30.10;1.00
3778;DHT22;1904;50.076;8.660;2023-06-22T16:23:30;28.40;1.00
3778;DHT22;1904;50.076;8.660;2023-06-22T16:25:56;28.00;1.00
3778;DHT22;1904;50.076;8.660;2023-06-22T16:28:24;27.90;1.00
3778;DHT22;1904;50.076;8.660;2023-06-22T16:31:06;26.60;1.00
3778;DHT22;1904;50.076;8.660;2023-06-22T16:33:42;26.50;1.00
3778;DHT22;1904;50.076;8.660;2023-06-22T16:36:18;26.00;1.00
3778;DHT22;1904;50.076;8.660;2023-06-22T16:38:44;25.40;1.00
3778;DHT22;1904;50.076;8.660;2023-06-22T16:41:12;24.90;1.00
3778;DHT22;1904;50.076;8.660;2023-06-22T16:43:42;24.50;1.00
3778;DHT22;1904;50.076;8.660;2023-06-22T16:46:08;24.20;1.00
3778;DHT22;1904;50.076;8.660;2023-06-22T16:48:36;24.10;1.00
3778;DHT22;1904;50.076;8.660;2023-06-22T16:53:44;24.00;1.00
3778;DHT22;1904;50.076;8.660;2023-06-22T16:56:26;23.90;1.00
3778;DHT22;1904;50.076;8.660;2023-06-22T16:59:18;23.80;1.00
3778;DHT22;1904;50.076;8.660;2023-06-22T17:01:51;23.70;1.00
3778;DHT22;1904;50.076;8.660;2023-06-22T17:04:25;23.60;1.00
3778;DHT22;1904;50.076;8.660;2023-06-22T17:07:11;23.60;1.00
3778;DHT22;1904;50.076;8.660;2023-06-22T17:09:40;23.70;1.00
3778;DHT22;1904;50.076;8.660;2023-06-22T17:12:07;23.60;1.00
3778;DHT22;1904;50.076;8.660;2023-06-22T17:14:42;23.60;1.00
3778;DHT22;1904;50.076;8.660;2023-06-22T17:17:15;23.60;1.00
3778;DHT22;1904;50.076;8.660;2023-06-22T17:20:06;23.60;1.00
3778;DHT22;1904;50.076;8.660;2023-06-22T17:22:36;23.60;1.00
3778;DHT22;1904;50.076;8.660;2023-06-22T17:25:08;23.60;1.00
3778;DHT22;1904;50.076;8.660;2023-06-22T17:27:35;23.60;1.00
3778;DHT22;1904;50.076;8.660;2023-06-22T17:33:38;23.60;1.00
3778;DHT22;1904;50.076;8.660;2023-06-22T17:46:10;23.30;1.00
3778;DHT22;1904;50.076;8.660;2023-06-22T17:55:30;23.50;1.00
3778;DHT22;1904;50.076;8.660;2023-06-22T17:58:06;23.70;1.00
3778;DHT22;1904;50.076;8.660;2023-06-22T18:03:50;24.00;1.00
3778;DHT22;1904;50.076;8.660;2023-06-22T18:10:07;24.20;1.00
3778;DHT22;1904;50.076;8.660;2023-06-22T18:12:37;24.50;1.00
3778;DHT22;1904;50.076;8.660;2023-06-22T18:18:37;24.60;1.00
3778;DHT22;1904;50.076;8.660;2023-06-22T18:21:24;24.60;1.00
3778;DHT22;1904;50.076;8.660;2023-06-22T18:23:55;24.70;1.00
3778;DHT22;1904;50.076;8.660;2023-06-22T18:26:48;24.70;1.00
3778;DHT22;1904;50.076;8.660;2023-06-22T18:32:41;24.70;1.00
3778;DHT22;1904;50.076;8.660;2023-06-22T18:35:18;24.70;1.00
3778;DHT22;1904;50.076;8.660;2023-06-22T18:41:06;24.60;1.00
3778;DHT22;1904;50.076;8.660;2023-06-22T18:46:40;24.30;1.00
3778;DHT22;1904;50.076;8.660;2023-06-22T18:49:15;24.30;1.00
3778;DHT22;1904;50.076;8.660;2023-06-22T18:51:56;23.90;1.00
3778;DHT22;1904;50.076;8.660;2023-06-22T18:54:44;23.80;1.00
3778;DHT22;1904;50.076;8.660;2023-06-22T19:04:14;23.40;1.00
3778;DHT22;1904;50.076;8.660;2023-06-22T19:07:06;23.30;1.00
3778;DHT22;1904;50.076;8.660;2023-06-22T19:19:33;22.80;1.00
3778;DHT22;1904;50.076;8.660;2023-06-22T19:28:10;22.40;1.00
3778;DHT22;1904;50.076;8.660;2023-06-22T19:30:42;22.30;1.00
3778;DHT22;1904;50.076;8.660;2023-06-22T19:43:18;21.90;1.00
3778;DHT22;1904;50.076;8.660;2023-06-22T19:45:56;21.80;1.00
3778;DHT22;1904;50.076;8.660;2023-06-22T19:51:48;21.70;1.00
3778;DHT22;1904;50.076;8.660;2023-06-22T19:58:06;21.50;1.00
3778;DHT22;1904;50.076;8.660;2023-06-22T20:00:54;21.50;1.00
3778;DHT22;1904;50.076;8.660;2023-06-22T20:03:32;21.50;1.00
3778;DHT22;1904;50.076;8.660;2023-06-22T20:06:24;21.40;1.00
3778;DHT22;1904;50.076;8.660;2023-06-22T20:12:00;21.30;1.00
3778;DHT22;1904;50.076;8.660;2023-06-22T20:14:34;21.20;1.00
3778;DHT22;1904;50.076;8.660;2023-06-22T20:17:00;21.20;1.00
3778;DHT22;1904;50.076;8.660;2023-06-22T20:19:37;21.20;1.00
3778;DHT22;1904;50.076;8.660;2023-06-22T20:22:07;21.10;1.00
3778;DHT22;1904;50.076;8.660;2023-06-22T20:24:33;21.10;1.00
3778;DHT22;1904;50.076;8.660;2023-06-22T20:27:00;21.20;1.00
3778;DHT22;1904;50.076;8.660;2023-06-22T20:29:36;21.30;1.00
3778;DHT22;1904;50.076;8.660;2023-06-22T20:32:04;21.30;1.00
3778;DHT22;1904;50.076;8.660;2023-06-22T20:34:46;21.30;1.00
3778;DHT22;1904;50.076;8.660;2023-06-22T20:37:18;21.40;1.00
3778;DHT22;1904;50.076;8.660;2023-06-22T20:40:06;21.40;1.00
3778;DHT22;1904;50.076;8.660;2023-06-22T20:42:48;21.40;1.00
3778;DHT22;1904;50.076;8.660;2023-06-22T20:45:30;21.50;1.00
3778;DHT22;1904;50.076;8.660;2023-06-22T20:48:06;21.40;1.00
3778;DHT22;1904;50.076;8.660;2023-06-22T20:50:36;21.50;1.00
3778;DHT22;1904;50.076;8.660;2023-06-22T20:53:03;21.50;1.00
3778;DHT22;1904;50.076;8.660;2023-06-22T20:55:32;21.40;1.00
3778;DHT22;1904;50.076;8.660;2023-06-22T20:58:07;21.30;1.00
3778;DHT22;1904;50.076;8.660;2023-06-22T21:00:37;21.30;1.00
3778;DHT22;1904;50.076;8.660;2023-06-22T21:03:07;21.30;1.00
3778;DHT22;1904;50.076;8.660;2023-06-22T21:05:48;21.30;1.00
3778;DHT22;1904;50.076;8.660;2023-06-22T21:08:14;21.40;1.00
3778;DHT22;1904;50.076;8.660;2023-06-22T21:10:40;21.40;1.00